createdAt,value
2019-02-22T00:01:54.860Z,9.20
2019-02-22T00:04:25.698Z,9.90
2019-02-22T00:06:56.683Z,11.13
2019-02-22T00:09:27.488Z,10.10
2019-02-22T00:11:58.364Z,9.03
2019-02-22T00:14:29.495Z,8.30
2019-02-22T00:17:00.551Z,7.27
2019-02-22T00:19:31.423Z,8.23
2019-02-22T00:22:02.339Z,9.13
2019-02-22T00:24:33.226Z,8.37
2019-02-22T00:27:04.158Z,8.77
2019-02-22T00:29:35.036Z,10.60
2019-02-22T00:32:05.941Z,9.30
2019-02-22T00:34:36.996Z,9.33
2019-02-22T00:37:07.915Z,8.37
2019-02-22T00:39:38.792Z,8.97
2019-02-22T00:42:09.615Z,9.50
2019-02-22T00:44:40.410Z,9.60
2019-02-22T00:47:11.320Z,9.60
2019-02-22T00:49:42.196Z,8.40
2019-02-22T00:52:13.771Z,9.60
2019-02-22T00:54:44.676Z,9.10
2019-02-22T00:57:15.681Z,9.47
2019-02-22T00:59:46.507Z,9.63
2019-02-22T01:02:17.294Z,9.33
2019-02-22T01:04:48.577Z,9.77
2019-02-22T01:07:19.383Z,10.33
2019-02-22T01:09:50.259Z,9.80
2019-02-22T01:12:21.249Z,9.80
2019-02-22T01:14:52.126Z,9.67
2019-02-22T01:17:23.022Z,9.17
2019-02-22T01:19:53.818Z,9.50
2019-02-22T01:22:24.811Z,10.97
2019-02-22T01:24:55.797Z,9.90
2019-02-22T01:27:26.573Z,10.07
2019-02-22T01:29:57.970Z,10.43
2019-02-22T01:32:28.874Z,9.17
2019-02-22T01:34:59.789Z,9.93
2019-02-22T01:37:30.792Z,9.00
2019-02-22T01:40:01.708Z,9.67
2019-02-22T01:42:33.633Z,10.57
2019-02-22T01:45:04.645Z,10.70
2019-02-22T01:47:35.429Z,10.47
2019-02-22T01:50:06.413Z,11.30
2019-02-22T01:52:37.251Z,12.00
2019-02-22T01:55:08.121Z,11.33
2019-02-22T01:57:39.448Z,10.27
2019-02-22T02:00:11.428Z,9.47
2019-02-22T02:02:43.028Z,9.67
2019-02-22T02:05:13.974Z,9.70
2019-02-22T02:07:44.983Z,9.70
2019-02-22T02:10:16.075Z,8.60
2019-02-22T02:12:46.845Z,9.40
2019-02-22T02:15:17.768Z,9.83
2019-02-22T02:17:48.518Z,9.30
2019-02-22T02:20:19.480Z,9.93
2019-02-22T02:22:51.483Z,9.37
2019-02-22T02:25:22.266Z,9.53
2019-02-22T02:27:53.347Z,11.20
2019-02-22T02:30:24.155Z,9.87
2019-02-22T02:32:55.211Z,10.10
2019-02-22T02:35:26.112Z,9.90
2019-02-22T02:37:57.406Z,9.40
2019-02-22T02:40:28.411Z,9.93
2019-02-22T02:42:59.303Z,8.73
2019-02-22T02:45:30.072Z,9.67
2019-02-22T02:48:00.972Z,10.60
2019-02-22T02:50:31.847Z,10.00
2019-02-22T02:53:02.769Z,10.57
2019-02-22T02:55:35.063Z,10.23
2019-02-22T02:58:06.043Z,10.30
2019-02-22T03:00:37.207Z,9.97
2019-02-22T03:03:08.046Z,9.23
2019-02-22T03:05:57.857Z,9.23
2019-02-22T03:08:32.483Z,8.80
2019-02-22T03:11:03.232Z,10.50
2019-02-22T03:13:34.198Z,8.57
2019-02-22T03:16:05.330Z,9.30
2019-02-22T03:18:36.146Z,9.00
2019-02-22T03:21:07.133Z,10.00
2019-02-22T03:23:38.027Z,9.63
2019-02-22T03:26:09.192Z,9.47
2019-02-22T03:28:40.095Z,9.20
2019-02-22T03:31:11.342Z,9.60
2019-02-22T03:33:42.296Z,9.30
2019-02-22T03:36:13.089Z,8.80
2019-02-22T03:38:43.851Z,8.97
2019-02-22T03:41:14.751Z,8.87
2019-02-22T03:43:45.625Z,10.07
2019-02-22T03:46:16.539Z,9.00
2019-02-22T03:48:47.514Z,9.20
2019-02-22T03:51:18.379Z,8.73
2019-02-22T03:54:02.860Z,8.33
2019-02-22T03:56:34.352Z,9.70
2019-02-22T03:59:05.666Z,8.80
2019-02-22T04:01:36.630Z,8.40
2019-02-22T04:04:07.508Z,8.90
2019-02-22T04:06:39.500Z,8.50
2019-02-22T04:09:13.443Z,8.40
2019-02-22T04:11:45.979Z,9.20
2019-02-22T04:14:16.878Z,9.07
2019-02-22T04:16:47.848Z,9.20
2019-02-22T04:19:18.642Z,9.30
2019-02-22T04:21:49.824Z,9.37
2019-02-22T04:24:20.611Z,9.40
2019-02-22T04:26:51.440Z,8.43
2019-02-22T04:29:22.454Z,8.30
2019-02-22T04:31:53.418Z,8.67
2019-02-22T04:34:24.255Z,8.40
2019-02-22T04:36:55.244Z,9.67
2019-02-22T04:39:26.038Z,9.97
2019-02-22T04:41:58.295Z,10.43
2019-02-22T04:44:29.350Z,10.60
2019-02-22T04:47:00.209Z,9.17
2019-02-22T04:49:31.086Z,10.67
2019-02-22T04:52:01.874Z,10.53
2019-02-22T04:54:32.773Z,9.30
2019-02-22T04:57:03.743Z,9.93
2019-02-22T04:59:34.681Z,9.50
2019-02-22T05:02:05.628Z,10.30
2019-02-22T05:04:36.807Z,9.57
2019-02-22T05:07:07.600Z,9.27
2019-02-22T05:09:38.655Z,10.87
2019-02-22T05:12:11.192Z,10.27
2019-02-22T05:14:42.215Z,9.00
2019-02-22T05:17:13.807Z,10.63
2019-02-22T05:19:44.692Z,9.80
2019-02-22T05:22:15.480Z,10.70
2019-02-22T05:24:46.459Z,9.53
2019-02-22T05:27:17.294Z,9.60
2019-02-22T05:29:48.544Z,10.83
2019-02-22T05:32:19.334Z,10.90
2019-02-22T05:34:51.260Z,11.70
2019-02-22T05:37:22.044Z,10.23
2019-02-22T05:39:52.945Z,10.90
2019-02-22T05:42:23.821Z,10.03
2019-02-22T05:44:54.657Z,11.47
2019-02-22T05:47:25.431Z,12.17
2019-02-22T05:49:56.331Z,11.77
2019-02-22T05:52:27.197Z,12.13
2019-02-22T05:54:57.995Z,12.20
2019-02-22T05:57:29.059Z,12.17
2019-02-22T06:00:02.293Z,10.70
2019-02-22T06:02:34.094Z,9.30
2019-02-22T06:05:05.140Z,9.03
2019-02-22T06:07:36.604Z,8.77
2019-02-22T06:10:07.627Z,10.40
2019-02-22T06:12:38.807Z,8.70
2019-02-22T06:15:09.688Z,9.47
2019-02-22T06:17:40.684Z,9.80
2019-02-22T06:20:11.696Z,9.07
2019-02-22T06:22:42.573Z,8.40
2019-02-22T06:25:13.355Z,8.93
2019-02-22T06:27:44.232Z,10.23
2019-02-22T06:30:15.121Z,10.03
2019-02-22T06:32:46.165Z,10.10
2019-02-22T06:35:17.118Z,10.30
2019-02-22T06:37:48.170Z,9.63
2019-02-22T06:40:18.984Z,11.07
2019-02-22T06:42:50.915Z,10.30
2019-02-22T06:45:21.892Z,11.07
2019-02-22T06:47:52.869Z,8.50
2019-02-22T06:50:33.332Z,11.20
2019-02-22T06:52:56.175Z,10.67
2019-02-22T06:55:26.981Z,10.33
2019-02-22T06:57:57.856Z,10.77
2019-02-22T07:00:28.756Z,10.60
2019-02-22T07:02:59.633Z,11.47
2019-02-22T07:05:30.609Z,11.47
2019-02-22T07:08:01.624Z,10.97
2019-02-22T07:10:51.375Z,11.00
2019-02-22T07:13:24.406Z,11.53
2019-02-22T07:15:55.051Z,9.83
2019-02-22T07:18:25.859Z,11.80
2019-02-22T07:20:56.743Z,11.03
2019-02-22T07:23:27.737Z,10.50
2019-02-22T07:25:58.620Z,9.80
2019-02-22T07:28:29.487Z,9.73
2019-02-22T07:31:00.294Z,9.53
2019-02-22T07:33:31.161Z,11.30
2019-02-22T07:36:02.048Z,9.13
2019-02-22T07:38:33.153Z,9.27
2019-02-22T07:41:04.053Z,10.80
2019-02-22T07:43:34.938Z,10.50
2019-02-22T07:46:05.861Z,10.23
2019-02-22T07:48:36.696Z,11.83
2019-02-22T07:51:07.483Z,9.17
2019-02-22T07:53:38.442Z,10.33
2019-02-22T07:56:09.273Z,11.27
2019-02-22T07:58:40.447Z,10.10
2019-02-22T08:01:11.340Z,12.10
2019-02-22T08:03:42.240Z,12.10
2019-02-22T08:06:13.017Z,10.80
2019-02-22T08:08:43.973Z,12.03
2019-02-22T08:11:14.805Z,11.73
2019-02-22T08:13:46.183Z,12.53
2019-02-22T08:16:16.972Z,11.40
2019-02-22T08:18:47.879Z,11.23
2019-02-22T08:21:18.656Z,12.30
2019-02-22T08:23:49.546Z,14.67
2019-02-22T08:26:20.432Z,12.07
2019-02-22T08:28:51.480Z,11.33
2019-02-22T08:31:22.393Z,13.47
2019-02-22T08:33:53.401Z,11.90
2019-02-22T08:36:24.188Z,13.53
2019-02-22T08:38:55.077Z,11.23
2019-02-22T08:41:25.860Z,10.43
2019-02-22T08:43:56.746Z,12.63
2019-02-22T08:46:27.525Z,11.27
2019-02-22T08:48:59.186Z,12.50
2019-02-22T08:51:30.123Z,12.50
2019-02-22T08:54:01.014Z,13.53
2019-02-22T08:56:32.820Z,11.70
2019-02-22T08:59:03.899Z,9.93
2019-02-22T09:01:35.792Z,11.90
2019-02-22T09:04:06.792Z,10.87
2019-02-22T09:06:37.584Z,11.43
2019-02-22T09:09:08.467Z,11.73
2019-02-22T09:11:39.783Z,11.83
2019-02-22T09:14:10.860Z,11.70
2019-02-22T09:16:41.753Z,11.90
2019-02-22T09:19:12.795Z,10.10
2019-02-22T09:21:43.748Z,11.77
2019-02-22T09:24:15.106Z,13.07
2019-02-22T09:26:46.018Z,11.77
2019-02-22T09:29:17.010Z,12.37
2019-02-22T09:31:48.086Z,11.40
2019-02-22T09:34:18.983Z,11.67
2019-02-22T09:36:49.773Z,11.90
2019-02-22T09:39:21.022Z,10.57
2019-02-22T09:41:51.972Z,11.57
2019-02-22T09:44:22.962Z,10.90
2019-02-22T09:46:53.631Z,11.37
2019-02-22T09:49:24.527Z,11.80
2019-02-22T09:51:55.327Z,11.33
2019-02-22T09:54:26.302Z,12.27
2019-02-22T09:56:57.177Z,14.13
2019-02-22T09:59:28.213Z,13.20
2019-02-22T10:01:59.073Z,15.60
2019-02-22T10:04:29.994Z,14.20
2019-02-22T10:07:00.845Z,14.77
2019-02-22T10:09:32.286Z,12.00
2019-02-22T10:12:03.347Z,13.33
2019-02-22T10:14:34.202Z,12.20
2019-02-22T10:17:05.173Z,13.13
2019-02-22T10:19:36.450Z,12.20
2019-02-22T10:22:07.408Z,11.50
2019-02-22T10:24:38.301Z,12.97
2019-02-22T10:27:11.938Z,12.30
2019-02-22T10:29:41.772Z,12.30
2019-02-22T10:32:12.684Z,12.03
2019-02-22T10:34:43.581Z,12.70
2019-02-22T10:37:14.365Z,11.80
2019-02-22T10:39:45.456Z,12.33
2019-02-22T10:42:16.227Z,10.53
2019-02-22T10:44:47.121Z,13.30
2019-02-22T10:47:18.009Z,12.43
2019-02-22T10:49:48.893Z,13.07
2019-02-22T10:52:19.587Z,13.90
2019-02-22T10:54:51.497Z,13.30
2019-02-22T10:57:22.373Z,12.23
2019-02-22T10:59:54.950Z,13.73
2019-02-22T11:02:25.801Z,14.00
2019-02-22T11:04:56.860Z,14.17
2019-02-22T11:07:27.656Z,13.70
2019-02-22T11:09:58.836Z,13.50
2019-02-22T11:12:29.770Z,14.50
2019-02-22T11:15:01.021Z,13.60
2019-02-22T11:17:32.027Z,13.77
2019-02-22T11:20:02.946Z,13.07
2019-02-22T11:22:34.129Z,13.80
2019-02-22T11:25:05.822Z,13.30
2019-02-22T11:27:36.721Z,13.10
2019-02-22T11:30:08.880Z,12.60
2019-02-22T11:32:39.929Z,13.40
2019-02-22T11:35:10.819Z,13.63
2019-02-22T11:37:41.893Z,14.00
2019-02-22T11:40:13.105Z,13.20
2019-02-22T11:42:43.881Z,13.90
2019-02-22T11:45:14.981Z,13.53
2019-02-22T11:47:45.859Z,14.10
2019-02-22T11:50:16.798Z,15.00
2019-02-22T11:52:47.646Z,15.90
2019-02-22T11:55:19.105Z,15.53
2019-02-22T11:57:50.101Z,14.07
2019-02-22T12:00:22.262Z,14.03
2019-02-22T12:02:53.249Z,13.60
2019-02-22T12:05:25.041Z,13.83
2019-02-22T12:07:55.937Z,14.07
2019-02-22T12:10:27.008Z,12.87
2019-02-22T12:12:57.901Z,12.63
2019-02-22T12:15:31.336Z,13.63
2019-02-22T12:18:01.537Z,13.23
2019-02-22T12:20:32.429Z,14.33
2019-02-22T12:23:03.213Z,14.60
2019-02-22T12:25:34.181Z,13.00
2019-02-22T12:28:05.072Z,13.13
2019-02-22T12:30:36.083Z,13.70
2019-02-22T12:33:06.966Z,13.23
2019-02-22T12:35:38.585Z,13.13
2019-02-22T12:38:09.438Z,15.07
2019-02-22T12:40:40.445Z,13.50
2019-02-22T12:43:11.221Z,12.70
2019-02-22T12:45:42.318Z,13.00
2019-02-22T12:48:13.097Z,12.47
2019-02-22T12:50:44.017Z,11.03
2019-02-22T12:53:14.884Z,15.00
2019-02-22T12:55:45.824Z,14.00
2019-02-22T12:58:16.700Z,11.87
2019-02-22T13:00:47.589Z,12.73
2019-02-22T13:03:18.515Z,12.37
2019-02-22T13:05:49.261Z,15.27
2019-02-22T13:08:20.572Z,12.20
2019-02-22T13:10:51.357Z,11.70
2019-02-22T13:13:22.245Z,11.80
2019-02-22T13:15:53.112Z,12.00
2019-02-22T13:18:24.090Z,11.93
2019-02-22T13:20:54.893Z,12.10
2019-02-22T13:23:25.831Z,10.60
2019-02-22T13:25:56.783Z,10.80
2019-02-22T13:28:27.676Z,9.87
2019-02-22T13:30:58.645Z,12.40
2019-02-22T13:33:29.522Z,11.53
2019-02-22T13:36:00.380Z,12.87
2019-02-22T13:38:31.145Z,12.40
2019-02-22T13:41:02.230Z,12.70
2019-02-22T13:43:33.136Z,12.20
2019-02-22T13:46:04.485Z,12.40
2019-02-22T13:48:35.392Z,12.27
2019-02-22T13:51:07.289Z,12.57
2019-02-22T13:53:38.218Z,12.30
2019-02-22T13:56:09.341Z,12.20
2019-02-22T13:58:40.203Z,11.40
2019-02-22T14:01:11.444Z,11.93
2019-02-22T14:03:42.400Z,10.80
2019-02-22T14:06:13.408Z,11.27
2019-02-22T14:08:44.383Z,10.60
2019-02-22T14:11:16.547Z,12.70
2019-02-22T14:13:47.518Z,10.67
2019-02-22T14:16:18.367Z,11.93
2019-02-22T14:18:49.249Z,12.17
2019-02-22T14:21:20.285Z,12.30
2019-02-22T14:23:51.235Z,11.50
2019-02-22T14:26:22.130Z,11.30
2019-02-22T14:28:52.905Z,10.27
2019-02-22T14:31:23.801Z,11.10
2019-02-22T14:33:54.574Z,11.67
2019-02-22T14:36:25.542Z,10.30
2019-02-22T14:38:56.356Z,10.67
2019-02-22T14:41:28.037Z,10.73
2019-02-22T14:43:59.162Z,11.27
2019-02-22T14:46:30.042Z,10.90
2019-02-22T14:49:00.818Z,9.17
2019-02-22T14:51:31.674Z,10.93
2019-02-22T14:54:02.489Z,10.13
2019-02-22T14:56:33.474Z,9.93
2019-02-22T14:59:04.385Z,10.63
2019-02-22T15:01:35.745Z,10.90
2019-02-22T15:04:06.547Z,10.83
2019-02-22T15:06:40.334Z,10.00
2019-02-22T15:09:10.985Z,10.00
2019-02-22T15:11:42.362Z,11.60
2019-02-22T15:14:14.214Z,10.97
2019-02-22T15:17:13.165Z,11.50
2019-02-22T15:19:44.043Z,10.97
2019-02-22T15:22:15.020Z,10.77
2019-02-22T15:24:45.693Z,10.90
2019-02-22T15:27:16.598Z,10.10
2019-02-22T15:29:47.392Z,10.53
2019-02-22T15:32:18.361Z,10.53
2019-02-22T15:34:49.161Z,9.97
2019-02-22T15:37:21.142Z,10.00
2019-02-22T15:39:51.979Z,11.20
2019-02-22T15:42:22.941Z,9.87
2019-02-22T15:44:53.528Z,8.67
2019-02-22T15:47:24.520Z,9.70
2019-02-22T15:49:55.292Z,8.63
2019-02-22T15:52:26.181Z,10.00
2019-02-22T15:54:56.976Z,9.63
2019-02-22T15:57:28.901Z,10.60
2019-02-22T15:59:59.789Z,9.30
2019-02-22T16:02:30.677Z,10.17
2019-02-22T16:05:09.426Z,9.70
2019-02-22T16:07:44.806Z,11.07
2019-02-22T16:10:14.574Z,10.17
2019-02-22T16:12:45.754Z,11.70
2019-02-22T16:15:17.981Z,10.20
2019-02-22T16:17:48.876Z,11.07
2019-02-22T16:20:19.813Z,10.80
2019-02-22T16:22:51.639Z,11.07
2019-02-22T16:25:22.668Z,10.20
2019-02-22T16:27:53.668Z,9.90
2019-02-22T16:30:25.891Z,11.10
2019-02-22T16:32:56.755Z,11.23
2019-02-22T16:35:27.745Z,11.57
2019-02-22T16:37:59.350Z,12.10
2019-02-22T16:40:30.139Z,11.30
2019-02-22T16:43:01.122Z,11.20
2019-02-22T16:45:31.936Z,13.13
2019-02-22T16:48:02.809Z,10.63
2019-02-22T16:50:33.708Z,10.17
2019-02-22T16:53:05.362Z,10.73
2019-02-22T16:55:36.192Z,11.17
2019-02-22T16:58:07.175Z,11.13
2019-02-22T17:00:38.068Z,11.20
2019-02-22T17:03:08.961Z,11.67
2019-02-22T17:05:40.551Z,9.87
2019-02-22T17:08:11.565Z,13.40
2019-02-22T17:10:42.545Z,13.07
2019-02-22T17:13:14.567Z,11.23
2019-02-22T17:15:45.344Z,12.47
2019-02-22T17:18:16.609Z,12.83
2019-02-22T17:20:47.617Z,10.40
2019-02-22T17:23:18.758Z,9.30
2019-02-22T17:25:49.610Z,9.77
2019-02-22T17:28:20.501Z,13.47
2019-02-22T17:30:51.372Z,12.83
2019-02-22T17:33:22.518Z,13.90
2019-02-22T17:35:53.467Z,9.97
2019-02-22T17:38:24.352Z,11.43
2019-02-22T17:40:55.142Z,11.83
2019-02-22T17:43:26.307Z,14.73
2019-02-22T17:45:57.109Z,12.93
2019-02-22T17:48:28.105Z,11.80
2019-02-22T17:50:58.881Z,16.07
2019-02-22T17:53:29.682Z,13.10
2019-02-22T17:56:00.673Z,12.80
2019-02-22T17:58:33.699Z,14.73
2019-02-22T18:01:05.331Z,13.10
2019-02-22T18:03:37.281Z,12.67
2019-02-22T18:06:08.109Z,9.70
2019-02-22T18:08:38.992Z,9.83
2019-02-22T18:11:09.867Z,10.80
2019-02-22T18:13:41.253Z,10.23
2019-02-22T18:16:12.069Z,10.90
2019-02-22T18:18:42.960Z,13.13
2019-02-22T18:21:13.740Z,9.97
2019-02-22T18:23:44.656Z,11.90
2019-02-22T18:26:15.602Z,11.87
2019-02-22T18:28:46.506Z,10.93
2019-02-22T18:31:17.294Z,12.33
2019-02-22T18:33:48.083Z,11.33
2019-02-22T18:36:18.847Z,12.07
2019-02-22T18:38:50.788Z,12.43
2019-02-22T18:41:21.561Z,10.87
2019-02-22T18:43:52.616Z,11.60
2019-02-22T18:46:23.422Z,11.40
2019-02-22T18:48:54.388Z,11.70
2019-02-22T18:51:25.317Z,11.77
2019-02-22T18:53:56.189Z,12.70
2019-02-22T18:56:26.987Z,12.17
2019-02-22T18:58:58.217Z,12.43
2019-02-22T19:01:29.064Z,12.93
2019-02-22T19:03:59.952Z,12.10
2019-02-22T19:06:30.842Z,14.00
2019-02-22T19:09:01.734Z,13.00
2019-02-22T19:11:34.137Z,21.50
2019-02-22T19:14:05.242Z,19.40
2019-02-22T19:16:36.121Z,13.00
2019-02-22T19:19:07.490Z,10.57
2019-02-22T19:21:38.521Z,11.33
2019-02-22T19:24:09.489Z,11.00
2019-02-22T19:26:41.318Z,9.83
2019-02-22T19:29:12.641Z,10.57
2019-02-22T19:31:43.514Z,12.07
2019-02-22T19:34:15.311Z,11.83
2019-02-22T19:36:46.203Z,12.30
2019-02-22T19:39:17.095Z,12.03
2019-02-22T19:41:48.061Z,11.30
2019-02-22T19:44:18.962Z,11.63
2019-02-22T19:46:49.841Z,11.10
2019-02-22T19:49:20.927Z,11.63
2019-02-22T19:51:51.631Z,11.20
2019-02-22T19:54:23.067Z,11.50
2019-02-22T19:56:53.905Z,10.53
2019-02-22T19:59:24.804Z,12.10
2019-02-22T20:01:55.793Z,11.53
2019-02-22T20:04:26.683Z,12.40
2019-02-22T20:06:59.939Z,13.03
2019-02-22T20:09:30.235Z,12.87
2019-02-22T20:12:01.197Z,12.93
2019-02-22T20:14:32.176Z,11.80
2019-02-22T20:17:02.961Z,11.67
2019-02-22T20:19:33.849Z,11.87
2019-02-22T20:22:04.640Z,11.73
2019-02-22T20:24:35.500Z,10.60
2019-02-22T20:27:06.536Z,12.63
2019-02-22T20:29:37.437Z,11.07
2019-02-22T20:32:09.464Z,11.80
2019-02-22T20:34:40.331Z,11.60
2019-02-22T20:37:11.314Z,11.27
2019-02-22T20:39:42.213Z,10.33
2019-02-22T20:42:12.833Z,10.27
2019-02-22T20:44:43.538Z,10.70
2019-02-22T20:47:14.652Z,10.10
2019-02-22T20:49:45.475Z,10.63
2019-02-22T20:52:16.360Z,11.30
2019-02-22T20:54:47.350Z,9.57
2019-02-22T20:57:18.682Z,9.93
2019-02-22T20:59:49.521Z,10.57
2019-02-22T21:02:20.677Z,10.60
2019-02-22T21:04:51.720Z,10.70
2019-02-22T21:07:22.749Z,11.00
2019-02-22T21:09:53.636Z,10.87
2019-02-22T21:12:24.661Z,10.03
2019-02-22T21:14:55.560Z,9.80
2019-02-22T21:17:26.646Z,9.70
2019-02-22T21:19:57.451Z,9.30
2019-02-22T21:22:28.437Z,9.57
2019-02-22T21:24:59.221Z,8.50
2019-02-22T21:27:30.223Z,10.00
2019-02-22T21:30:00.984Z,9.30
2019-02-22T21:32:32.174Z,8.77
2019-02-22T21:35:03.149Z,9.20
2019-02-22T21:37:34.055Z,7.97
2019-02-22T21:40:04.938Z,10.10
2019-02-22T21:42:35.795Z,10.10
2019-02-22T21:45:07.061Z,9.80
2019-02-22T21:47:39.418Z,10.47
2019-02-22T21:50:13.223Z,9.70
2019-02-22T21:52:44.056Z,8.90
2019-02-22T21:55:14.947Z,9.00
2019-02-22T21:57:45.920Z,8.10
2019-02-22T22:00:18.243Z,9.03
2019-02-22T22:02:49.551Z,8.83
2019-02-22T22:05:20.630Z,8.67
2019-02-22T22:07:51.421Z,9.53
2019-02-22T22:10:22.341Z,8.53
2019-02-22T22:12:53.090Z,9.27
2019-02-22T22:15:24.063Z,7.83
2019-02-22T22:17:54.875Z,8.57
2019-02-22T22:20:25.771Z,8.20
2019-02-22T22:22:56.651Z,7.80
2019-02-22T22:25:27.534Z,7.90
2019-02-22T22:27:58.406Z,6.00
2019-02-22T22:30:29.294Z,6.43
2019-02-22T22:33:00.085Z,7.27
2019-02-22T22:35:31.351Z,7.10
2019-02-22T22:38:02.163Z,7.53
2019-02-22T22:40:33.147Z,7.87
2019-02-22T22:43:04.058Z,8.50
2019-02-22T22:45:35.025Z,7.17
2019-02-22T22:48:06.030Z,8.33
2019-02-22T22:50:37.198Z,7.57
2019-02-22T22:53:07.998Z,7.60
2019-02-22T22:55:39.455Z,7.30
2019-02-22T22:58:10.300Z,6.93
2019-02-22T23:01:13.385Z,7.70
2019-02-22T23:03:44.527Z,8.03
2019-02-22T23:06:16.694Z,6.93
2019-02-22T23:08:47.750Z,7.63
2019-02-22T23:11:18.946Z,6.57
2019-02-22T23:13:49.812Z,7.80
2019-02-22T23:16:20.694Z,8.67
2019-02-22T23:19:01.352Z,7.00
2019-02-22T23:21:24.255Z,7.03
2019-02-22T23:23:55.223Z,7.53
2019-02-22T23:26:26.216Z,7.13
2019-02-22T23:28:57.010Z,7.63
2019-02-22T23:31:27.871Z,6.60
2019-02-22T23:33:58.657Z,6.53
2019-02-22T23:36:30.282Z,8.37
2019-02-22T23:39:01.043Z,7.07
2019-02-22T23:41:33.570Z,8.03
2019-02-22T23:44:04.476Z,7.33
2019-02-22T23:46:35.750Z,6.83
2019-02-22T23:49:13.137Z,5.70
2019-02-22T23:51:39.223Z,7.63
2019-02-22T23:54:09.982Z,7.50
2019-02-22T23:56:40.847Z,7.70
2019-02-22T23:59:11.738Z,7.10
